FWV3TG LIMJ-LYTV
Flight info
| Callsign | FWV3TG |
|---|---|
| Flight time | 1h 16m |
| Altitude | 39000 |
| Route | ITCAP DCT LUPOS DCT UVOKI DCT LURUT DCT EDUGI DCT ELGUS DCT BALHA L187 BIGLO |
| Aircraft | B38M/M-SDE1FGHILORVWXY/HB1 |
Departure
| Time | 2026-05-04 21:28 |
|---|---|
| Airport | Genoa Cristoforo Colombo Airport (LIMJ) |
Arrival
| Time | 2026-05-04 22:44 |
|---|---|
| Airport | Tivat Airport (LYTV) |
| Time | Latitude | Longitude | Altitude | Speed | Heading |
|---|---|---|---|---|---|
| 2026-05-04 20:47 | 44.41539 | 8.84948 | 20 ft | 0 kts | 104° |
| 2026-05-04 21:11 | 44.41545 | 8.84924 | 23 ft | 4 kts | 107° |
| 2026-05-04 21:11 | 44.41551 | 8.84895 | 26 ft | 4 kts | 122° |
| 2026-05-04 21:11 | 44.41567 | 8.84879 | 23 ft | 4 kts | 193° |
| 2026-05-04 21:11 | 44.41582 | 8.84892 | 20 ft | 2 kts | 230° |
| 2026-05-04 21:12 | 44.41569 | 8.84870 | 24 ft | 4 kts | 232° |
| 2026-05-04 21:12 | 44.41559 | 8.84853 | 22 ft | 1 kts | 231° |
| 2026-05-04 21:16 | 44.41559 | 8.84852 | 20 ft | 1 kts | 231° |
| 2026-05-04 21:16 | 44.41546 | 8.84830 | 21 ft | 6 kts | 231° |
| 2026-05-04 21:16 | 44.41512 | 8.84768 | 20 ft | 10 kts | 233° |
| 2026-05-04 21:16 | 44.41470 | 8.84692 | 20 ft | 9 kts | 232° |
| 2026-05-04 21:17 | 44.41414 | 8.84667 | 20 ft | 10 kts | 141° |
| 2026-05-04 21:17 | 44.41388 | 8.84769 | 20 ft | 12 kts | 104° |
| 2026-05-04 21:17 | 44.41363 | 8.84897 | 20 ft | 15 kts | 105° |
| 2026-05-04 21:17 | 44.41336 | 8.85049 | 20 ft | 17 kts | 105° |
| 2026-05-04 21:18 | 44.41307 | 8.85198 | 20 ft | 14 kts | 105° |
| 2026-05-04 21:18 | 44.41242 | 8.85284 | 21 ft | 12 kts | 173° |
| 2026-05-04 21:18 | 44.41186 | 8.85269 | 20 ft | 8 kts | 194° |
| 2026-05-04 21:18 | 44.41136 | 8.85250 | 19 ft | 7 kts | 195° |
| 2026-05-04 21:19 | 44.41105 | 8.85238 | 18 ft | 0 kts | 195° |
| 2026-05-04 21:25 | 44.41088 | 8.85232 | 17 ft | 7 kts | 195° |
| 2026-05-04 21:25 | 44.41028 | 8.85179 | 15 ft | 12 kts | 191° |
| 2026-05-04 21:25 | 44.40983 | 8.85269 | 16 ft | 15 kts | 105° |
| 2026-05-04 21:25 | 44.40950 | 8.85443 | 20 ft | 22 kts | 105° |
| 2026-05-04 21:26 | 44.40906 | 8.85655 | 24 ft | 22 kts | 106° |
| 2026-05-04 21:26 | 44.40862 | 8.85871 | 24 ft | 25 kts | 105° |
| 2026-05-04 21:26 | 44.40872 | 8.86031 | 26 ft | 9 kts | 82° |
| 2026-05-04 21:26 | 44.40857 | 8.86057 | 26 ft | 3 kts | 181° |
| 2026-05-04 21:27 | 44.40842 | 8.85986 | 25 ft | 15 kts | 280° |
| 2026-05-04 21:27 | 44.40897 | 8.85703 | 26 ft | 63 kts | 285° |
| 2026-05-04 21:27 | 44.41088 | 8.84731 | 20 ft | 141 kts | 285° |
| 2026-05-04 21:27 | 44.41399 | 8.83154 | 211 ft | 185 kts | 285° |
| 2026-05-04 21:28 | 44.41744 | 8.81360 | 1117 ft | 188 kts | 285° |
| 2026-05-04 21:28 | 44.41985 | 8.79614 | 2199 ft | 190 kts | 265° |
| 2026-05-04 21:28 | 44.41474 | 8.77896 | 2803 ft | 190 kts | 220° |
| 2026-05-04 21:28 | 44.40785 | 8.77214 | 3508 ft | 183 kts | 199° |
| 2026-05-04 21:29 | 44.39122 | 8.77154 | 4525 ft | 186 kts | 157° |
| 2026-05-04 21:29 | 44.38001 | 8.78078 | 5369 ft | 190 kts | 151° |
| 2026-05-04 21:29 | 44.36808 | 8.78951 | 6147 ft | 195 kts | 154° |
| 2026-05-04 21:29 | 44.35596 | 8.79817 | 6992 ft | 197 kts | 154° |
| 2026-05-04 21:30 | 44.34361 | 8.80696 | 7772 ft | 201 kts | 155° |
| 2026-05-04 21:30 | 44.33539 | 8.81297 | 8301 ft | 203 kts | 150° |
| 2026-05-04 21:30 | 44.32646 | 8.82845 | 9021 ft | 218 kts | 112° |
| 2026-05-04 21:30 | 44.32277 | 8.85805 | 9703 ft | 246 kts | 101° |
| 2026-05-04 21:31 | 44.32043 | 8.90954 | 10548 ft | 293 kts | 81° |
| 2026-05-04 21:31 | 44.32869 | 8.93674 | 10982 ft | 319 kts | 57° |
| 2026-05-04 21:31 | 44.34490 | 8.95917 | 11485 ft | 339 kts | 37° |
| 2026-05-04 21:32 | 44.36406 | 8.97944 | 12074 ft | 351 kts | 44° |
| 2026-05-04 21:32 | 44.37532 | 8.99563 | 12644 ft | 352 kts | 50° |
| 2026-05-04 21:32 | 44.39132 | 9.02187 | 13510 ft | 357 kts | 53° |
| 2026-05-04 21:32 | 44.40657 | 9.04956 | 14342 ft | 362 kts | 56° |
| 2026-05-04 21:33 | 44.42216 | 9.09035 | 15519 ft | 359 kts | 78° |
| 2026-05-04 21:33 | 44.42582 | 9.12483 | 16368 ft | 360 kts | 86° |
| 2026-05-04 21:33 | 44.42847 | 9.15986 | 17133 ft | 365 kts | 86° |
| 2026-05-04 21:33 | 44.43013 | 9.18385 | 17660 ft | 368 kts | 86° |
| 2026-05-04 21:34 | 44.43244 | 9.21927 | 18436 ft | 373 kts | 86° |
| 2026-05-04 21:34 | 44.43468 | 9.25559 | 19086 ft | 377 kts | 86° |
| 2026-05-04 21:34 | 44.43687 | 9.29236 | 19739 ft | 382 kts | 86° |
| 2026-05-04 21:34 | 44.43905 | 9.32959 | 20371 ft | 386 kts | 86° |
| 2026-05-04 21:35 | 44.44123 | 9.36725 | 20995 ft | 390 kts | 86° |
| 2026-05-04 21:35 | 44.44342 | 9.40530 | 21626 ft | 395 kts | 86° |
| 2026-05-04 21:35 | 44.44562 | 9.44381 | 22246 ft | 399 kts | 86° |
| 2026-05-04 21:35 | 44.44784 | 9.48274 | 22855 ft | 404 kts | 86° |
| 2026-05-04 21:36 | 44.45006 | 9.52210 | 23460 ft | 408 kts | 86° |
| 2026-05-04 21:36 | 44.45226 | 9.56139 | 23960 ft | 412 kts | 86° |
| 2026-05-04 21:36 | 44.45450 | 9.60151 | 24470 ft | 416 kts | 86° |
| 2026-05-04 21:36 | 44.45674 | 9.64204 | 24955 ft | 419 kts | 87° |
| 2026-05-04 21:37 | 44.45899 | 9.68295 | 25441 ft | 423 kts | 87° |
| 2026-05-04 21:37 | 44.46124 | 9.72411 | 25909 ft | 427 kts | 87° |
| 2026-05-04 21:37 | 44.46350 | 9.76570 | 26376 ft | 430 kts | 87° |
| 2026-05-04 21:37 | 44.46576 | 9.80760 | 26845 ft | 433 kts | 87° |
| 2026-05-04 21:38 | 44.46803 | 9.84983 | 27302 ft | 437 kts | 87° |
| 2026-05-04 21:38 | 44.47025 | 9.89167 | 27769 ft | 440 kts | 87° |
| 2026-05-04 21:38 | 44.47252 | 9.93467 | 28198 ft | 443 kts | 87° |
| 2026-05-04 21:38 | 44.47479 | 9.97783 | 28631 ft | 446 kts | 87° |
| 2026-05-04 21:39 | 44.47705 | 10.02133 | 29079 ft | 449 kts | 87° |
| 2026-05-04 21:39 | 44.47931 | 10.06510 | 29497 ft | 453 kts | 87° |
| 2026-05-04 21:39 | 44.48158 | 10.10925 | 29905 ft | 456 kts | 88° |
| 2026-05-04 21:39 | 44.48384 | 10.15372 | 30319 ft | 459 kts | 88° |
| 2026-05-04 21:40 | 44.48607 | 10.19783 | 30660 ft | 462 kts | 88° |
| 2026-05-04 21:40 | 44.48833 | 10.24277 | 31027 ft | 464 kts | 87° |
| 2026-05-04 21:40 | 44.49057 | 10.28799 | 31426 ft | 466 kts | 87° |
| 2026-05-04 21:40 | 44.49281 | 10.33335 | 31776 ft | 468 kts | 87° |
| 2026-05-04 21:41 | 44.49505 | 10.37896 | 32124 ft | 471 kts | 87° |
| 2026-05-04 21:41 | 44.49726 | 10.42482 | 32461 ft | 473 kts | 87° |
| 2026-05-04 21:41 | 44.49949 | 10.47093 | 32817 ft | 476 kts | 88° |
| 2026-05-04 21:41 | 44.50172 | 10.51728 | 33153 ft | 478 kts | 88° |
| 2026-05-04 21:42 | 44.50390 | 10.56323 | 33479 ft | 480 kts | 88° |
| 2026-05-04 21:42 | 44.50612 | 10.61002 | 33782 ft | 483 kts | 87° |
| 2026-05-04 21:42 | 44.50833 | 10.65717 | 34079 ft | 486 kts | 87° |
| 2026-05-04 21:42 | 44.51055 | 10.70438 | 34484 ft | 485 kts | 87° |
| 2026-05-04 21:43 | 44.51281 | 10.75153 | 34893 ft | 484 kts | 87° |
| 2026-05-04 21:43 | 44.51503 | 10.79852 | 35306 ft | 483 kts | 87° |
| 2026-05-04 21:43 | 44.51724 | 10.84550 | 35695 ft | 482 kts | 87° |
| 2026-05-04 21:43 | 44.51942 | 10.89230 | 36101 ft | 481 kts | 87° |
| 2026-05-04 21:44 | 44.52155 | 10.93836 | 36473 ft | 480 kts | 87° |
| 2026-05-04 21:44 | 44.52079 | 10.98484 | 36823 ft | 476 kts | 102° |
| 2026-05-04 21:44 | 44.51267 | 11.02947 | 37205 ft | 472 kts | 108° |
| 2026-05-04 21:44 | 44.50378 | 11.07373 | 37470 ft | 473 kts | 108° |
| 2026-05-04 21:45 | 44.49465 | 11.11792 | 37793 ft | 472 kts | 108° |
| 2026-05-04 21:45 | 44.48533 | 11.16201 | 38125 ft | 471 kts | 109° |
| 2026-05-04 21:45 | 44.47592 | 11.20594 | 38446 ft | 471 kts | 109° |
| 2026-05-04 21:45 | 44.46649 | 11.24974 | 38770 ft | 470 kts | 109° |
| 2026-05-04 21:46 | 44.45716 | 11.29291 | 38946 ft | 469 kts | 109° |
| 2026-05-04 21:46 | 44.44770 | 11.33661 | 39087 ft | 470 kts | 108° |
| 2026-05-04 21:46 | 44.43820 | 11.38043 | 39116 ft | 470 kts | 108° |
| 2026-05-04 21:47 | 44.41920 | 11.46773 | 39123 ft | 468 kts | 108° |
| 2026-05-04 21:47 | 44.40017 | 11.55478 | 39127 ft | 468 kts | 108° |
| 2026-05-04 21:48 | 44.38109 | 11.64176 | 39136 ft | 468 kts | 109° |
| 2026-05-04 21:48 | 44.36207 | 11.72809 | 39143 ft | 468 kts | 108° |
| 2026-05-04 21:49 | 44.34282 | 11.81512 | 39138 ft | 469 kts | 108° |
| 2026-05-04 21:49 | 44.32351 | 11.90203 | 39125 ft | 469 kts | 109° |
| 2026-05-04 21:50 | 44.30414 | 11.98888 | 39120 ft | 468 kts | 109° |
| 2026-05-04 21:50 | 44.28484 | 12.07508 | 39105 ft | 468 kts | 108° |
| 2026-05-04 21:51 | 44.26532 | 12.16191 | 39115 ft | 469 kts | 108° |
| 2026-05-04 21:51 | 44.24573 | 12.24866 | 39105 ft | 469 kts | 108° |
| 2026-05-04 21:52 | 44.22607 | 12.33543 | 39104 ft | 469 kts | 109° |
| 2026-05-04 21:52 | 44.20648 | 12.42152 | 39094 ft | 469 kts | 108° |
| 2026-05-04 21:53 | 44.18668 | 12.50821 | 39100 ft | 470 kts | 108° |
| 2026-05-04 21:53 | 44.16680 | 12.59488 | 39105 ft | 470 kts | 109° |
| 2026-05-04 21:54 | 44.14686 | 12.68144 | 39100 ft | 470 kts | 109° |
| 2026-05-04 21:54 | 44.12698 | 12.76743 | 39101 ft | 470 kts | 109° |
| 2026-05-04 21:55 | 44.10691 | 12.85392 | 39105 ft | 470 kts | 108° |
| 2026-05-04 21:55 | 44.08676 | 12.94039 | 39102 ft | 470 kts | 109° |
| 2026-05-04 21:56 | 44.06654 | 13.02684 | 39101 ft | 470 kts | 109° |
| 2026-05-04 21:56 | 44.04640 | 13.11260 | 39093 ft | 470 kts | 109° |
| 2026-05-04 21:57 | 44.02605 | 13.19894 | 39097 ft | 470 kts | 109° |
| 2026-05-04 21:57 | 44.00563 | 13.28522 | 39097 ft | 470 kts | 109° |
| 2026-05-04 21:58 | 43.98513 | 13.37148 | 39101 ft | 470 kts | 109° |
| 2026-05-04 21:58 | 43.96472 | 13.45709 | 39100 ft | 470 kts | 109° |
| 2026-05-04 21:59 | 43.94411 | 13.54318 | 39103 ft | 470 kts | 109° |
| 2026-05-04 21:59 | 43.92340 | 13.62933 | 39100 ft | 471 kts | 109° |
| 2026-05-04 22:00 | 43.90264 | 13.71539 | 39104 ft | 471 kts | 109° |
| 2026-05-04 22:00 | 43.88182 | 13.80138 | 39104 ft | 471 kts | 109° |
| 2026-05-04 22:01 | 43.86107 | 13.88677 | 39104 ft | 471 kts | 109° |
| 2026-05-04 22:01 | 43.84012 | 13.97275 | 39105 ft | 471 kts | 109° |
| 2026-05-04 22:02 | 43.81911 | 14.05866 | 39104 ft | 471 kts | 109° |
| 2026-05-04 22:02 | 43.79802 | 14.14456 | 39106 ft | 471 kts | 109° |
| 2026-05-04 22:03 | 43.77341 | 14.22779 | 39122 ft | 471 kts | 113° |
| 2026-05-04 22:03 | 43.74793 | 14.31155 | 39106 ft | 473 kts | 113° |
| 2026-05-04 22:04 | 43.72257 | 14.39543 | 39105 ft | 473 kts | 113° |
| 2026-05-04 22:04 | 43.69717 | 14.47925 | 39110 ft | 473 kts | 113° |
| 2026-05-04 22:05 | 43.67187 | 14.56248 | 39104 ft | 473 kts | 113° |
| 2026-05-04 22:05 | 43.64633 | 14.64621 | 39118 ft | 473 kts | 113° |
| 2026-05-04 22:06 | 43.62071 | 14.72992 | 39119 ft | 473 kts | 113° |
| 2026-05-04 22:06 | 43.59505 | 14.81352 | 39112 ft | 473 kts | 113° |
| 2026-05-04 22:07 | 43.56949 | 14.89653 | 39112 ft | 473 kts | 113° |
| 2026-05-04 22:07 | 43.54437 | 14.98046 | 39124 ft | 474 kts | 110° |
| 2026-05-04 22:08 | 43.52066 | 15.06532 | 39122 ft | 475 kts | 111° |
| 2026-05-04 22:08 | 43.49670 | 15.15008 | 39115 ft | 475 kts | 111° |
| 2026-05-04 22:09 | 43.47282 | 15.23419 | 39119 ft | 475 kts | 111° |
| 2026-05-04 22:09 | 43.44873 | 15.31879 | 39126 ft | 475 kts | 111° |
| 2026-05-04 22:10 | 43.42453 | 15.40346 | 39122 ft | 476 kts | 111° |
| 2026-05-04 22:10 | 43.40027 | 15.48808 | 39123 ft | 476 kts | 111° |
| 2026-05-04 22:11 | 43.37611 | 15.57206 | 39130 ft | 476 kts | 111° |
| 2026-05-04 22:11 | 43.35172 | 15.65653 | 39135 ft | 476 kts | 111° |
| 2026-05-04 22:12 | 43.32722 | 15.74111 | 39130 ft | 476 kts | 111° |
| 2026-05-04 22:12 | 43.30266 | 15.82563 | 39135 ft | 477 kts | 111° |
| 2026-05-04 22:13 | 43.27799 | 15.91022 | 39132 ft | 477 kts | 111° |
| 2026-05-04 22:13 | 43.25344 | 15.99415 | 39133 ft | 477 kts | 111° |
| 2026-05-04 22:14 | 43.22862 | 16.07871 | 39134 ft | 478 kts | 111° |
| 2026-05-04 22:14 | 43.20371 | 16.16330 | 39133 ft | 479 kts | 111° |
| 2026-05-04 22:15 | 43.17889 | 16.24730 | 39139 ft | 479 kts | 111° |
| 2026-05-04 22:15 | 43.15383 | 16.33183 | 39138 ft | 479 kts | 111° |
| 2026-05-04 22:16 | 43.12869 | 16.41634 | 38883 ft | 479 kts | 111° |
| 2026-05-04 22:16 | 43.11611 | 16.45853 | 38597 ft | 478 kts | 111° |
| 2026-05-04 22:16 | 43.10352 | 16.50069 | 38295 ft | 479 kts | 111° |
| 2026-05-04 22:16 | 43.09090 | 16.54287 | 38004 ft | 479 kts | 111° |
| 2026-05-04 22:17 | 43.07826 | 16.58508 | 37710 ft | 480 kts | 111° |
| 2026-05-04 22:17 | 43.06575 | 16.62674 | 37424 ft | 481 kts | 111° |
| 2026-05-04 22:17 | 43.05304 | 16.66903 | 37137 ft | 481 kts | 111° |
| 2026-05-04 22:17 | 43.04029 | 16.71136 | 36861 ft | 480 kts | 110° |
| 2026-05-04 22:18 | 43.02766 | 16.75326 | 36292 ft | 476 kts | 110° |
| 2026-05-04 22:18 | 43.01499 | 16.79521 | 35404 ft | 481 kts | 110° |
| 2026-05-04 22:18 | 43.00217 | 16.83759 | 34625 ft | 484 kts | 110° |
| 2026-05-04 22:18 | 42.98932 | 16.87997 | 34033 ft | 481 kts | 110° |
| 2026-05-04 22:19 | 42.97658 | 16.92191 | 33528 ft | 475 kts | 110° |
| 2026-05-04 22:19 | 42.96415 | 16.96279 | 33010 ft | 470 kts | 110° |
| 2026-05-04 22:19 | 42.95164 | 17.00386 | 32463 ft | 467 kts | 110° |
| 2026-05-04 22:19 | 42.93919 | 17.04470 | 31870 ft | 465 kts | 109° |
| 2026-05-04 22:20 | 42.92678 | 17.08532 | 31347 ft | 464 kts | 109° |
| 2026-05-04 22:20 | 42.91431 | 17.12606 | 30780 ft | 467 kts | 109° |
| 2026-05-04 22:20 | 42.90181 | 17.16685 | 30215 ft | 465 kts | 109° |
| 2026-05-04 22:20 | 42.88938 | 17.20734 | 29574 ft | 461 kts | 109° |
| 2026-05-04 22:21 | 42.87706 | 17.24743 | 29002 ft | 456 kts | 109° |
| 2026-05-04 22:21 | 42.86483 | 17.28712 | 28473 ft | 451 kts | 109° |
| 2026-05-04 22:21 | 42.85275 | 17.32631 | 27944 ft | 447 kts | 109° |
| 2026-05-04 22:21 | 42.84094 | 17.36457 | 27424 ft | 442 kts | 109° |
| 2026-05-04 22:22 | 42.82907 | 17.40293 | 26931 ft | 437 kts | 109° |
| 2026-05-04 22:22 | 42.81730 | 17.44096 | 26416 ft | 433 kts | 109° |
| 2026-05-04 22:22 | 42.80565 | 17.47849 | 25909 ft | 429 kts | 109° |
| 2026-05-04 22:22 | 42.79411 | 17.51568 | 25413 ft | 424 kts | 109° |
| 2026-05-04 22:23 | 42.78266 | 17.55249 | 24931 ft | 420 kts | 109° |
| 2026-05-04 22:23 | 42.77131 | 17.58893 | 24454 ft | 416 kts | 109° |
| 2026-05-04 22:23 | 42.76008 | 17.62492 | 24003 ft | 412 kts | 109° |
| 2026-05-04 22:23 | 42.74909 | 17.66013 | 23521 ft | 408 kts | 110° |
| 2026-05-04 22:24 | 42.73805 | 17.69543 | 23010 ft | 403 kts | 110° |
| 2026-05-04 22:24 | 42.72710 | 17.73039 | 22561 ft | 400 kts | 110° |
| 2026-05-04 22:24 | 42.71624 | 17.76505 | 22152 ft | 397 kts | 109° |
| 2026-05-04 22:24 | 42.70543 | 17.79947 | 21719 ft | 394 kts | 109° |
| 2026-05-04 22:25 | 42.69470 | 17.83359 | 21293 ft | 391 kts | 109° |
| 2026-05-04 22:25 | 42.68404 | 17.86746 | 20881 ft | 388 kts | 109° |
| 2026-05-04 22:25 | 42.67346 | 17.90103 | 20469 ft | 385 kts | 110° |
| 2026-05-04 22:25 | 42.66309 | 17.93389 | 20066 ft | 382 kts | 110° |
| 2026-05-04 22:26 | 42.65266 | 17.96690 | 19668 ft | 379 kts | 110° |
| 2026-05-04 22:26 | 42.64231 | 17.99965 | 19277 ft | 376 kts | 110° |
| 2026-05-04 22:26 | 42.63142 | 18.03188 | 18812 ft | 377 kts | 117° |
| 2026-05-04 22:26 | 42.61731 | 18.06194 | 18364 ft | 376 kts | 118° |
| 2026-05-04 22:27 | 42.60359 | 18.09207 | 17923 ft | 373 kts | 118° |
| 2026-05-04 22:27 | 42.59015 | 18.12200 | 17522 ft | 369 kts | 117° |
| 2026-05-04 22:27 | 42.57695 | 18.15170 | 17118 ft | 366 kts | 117° |
| 2026-05-04 22:27 | 42.56392 | 18.18115 | 16735 ft | 363 kts | 117° |
| 2026-05-04 22:28 | 42.55101 | 18.21037 | 16351 ft | 360 kts | 117° |
| 2026-05-04 22:28 | 42.53835 | 18.23901 | 15938 ft | 358 kts | 117° |
| 2026-05-04 22:28 | 42.52554 | 18.26798 | 15476 ft | 358 kts | 117° |
| 2026-05-04 22:28 | 42.51275 | 18.29688 | 15059 ft | 356 kts | 117° |
| 2026-05-04 22:29 | 42.50006 | 18.32552 | 14668 ft | 354 kts | 117° |
| 2026-05-04 22:29 | 42.48745 | 18.35396 | 14287 ft | 351 kts | 117° |
| 2026-05-04 22:29 | 42.47492 | 18.38219 | 13903 ft | 349 kts | 117° |
| 2026-05-04 22:29 | 42.46244 | 18.41027 | 13487 ft | 346 kts | 117° |
| 2026-05-04 22:30 | 42.45006 | 18.43811 | 13102 ft | 344 kts | 117° |
| 2026-05-04 22:30 | 42.43777 | 18.46571 | 12722 ft | 342 kts | 117° |
| 2026-05-04 22:30 | 42.42553 | 18.49318 | 12350 ft | 339 kts | 117° |
| 2026-05-04 22:30 | 42.41354 | 18.52005 | 11991 ft | 338 kts | 117° |
| 2026-05-04 22:31 | 42.40143 | 18.54719 | 11612 ft | 336 kts | 117° |
| 2026-05-04 22:31 | 42.38937 | 18.57419 | 11242 ft | 334 kts | 117° |
| 2026-05-04 22:31 | 42.37743 | 18.60090 | 10872 ft | 328 kts | 118° |
| 2026-05-04 22:31 | 42.36578 | 18.62691 | 10614 ft | 316 kts | 118° |
| 2026-05-04 22:32 | 42.35467 | 18.65173 | 10488 ft | 302 kts | 117° |
| 2026-05-04 22:32 | 42.34391 | 18.67572 | 10356 ft | 296 kts | 118° |
| 2026-05-04 22:32 | 42.33297 | 18.69907 | 10207 ft | 295 kts | 125° |
| 2026-05-04 22:32 | 42.31709 | 18.71655 | 9949 ft | 300 kts | 152° |
| 2026-05-04 22:33 | 42.29718 | 18.72355 | 9625 ft | 303 kts | 174° |
| 2026-05-04 22:33 | 42.27618 | 18.72574 | 9310 ft | 303 kts | 174° |
| 2026-05-04 22:33 | 42.25516 | 18.72815 | 8962 ft | 303 kts | 174° |
| 2026-05-04 22:33 | 42.23415 | 18.73056 | 8623 ft | 302 kts | 174° |
| 2026-05-04 22:34 | 42.21324 | 18.73297 | 8297 ft | 300 kts | 174° |
| 2026-05-04 22:34 | 42.19268 | 18.73533 | 7977 ft | 294 kts | 175° |
| 2026-05-04 22:34 | 42.17254 | 18.73764 | 7679 ft | 286 kts | 175° |
| 2026-05-04 22:34 | 42.15308 | 18.73997 | 7399 ft | 276 kts | 172° |
| 2026-05-04 22:35 | 42.13524 | 18.74681 | 7166 ft | 266 kts | 157° |
| 2026-05-04 22:35 | 42.11820 | 18.75582 | 7027 ft | 261 kts | 158° |
| 2026-05-04 22:35 | 42.10153 | 18.76516 | 6871 ft | 259 kts | 149° |
| 2026-05-04 22:35 | 42.08873 | 18.78151 | 6606 ft | 254 kts | 118° |
| 2026-05-04 22:36 | 42.08339 | 18.80356 | 6336 ft | 246 kts | 91° |
| 2026-05-04 22:36 | 42.08566 | 18.82579 | 6080 ft | 238 kts | 67° |
| 2026-05-04 22:36 | 42.09415 | 18.84433 | 5851 ft | 230 kts | 41° |
| 2026-05-04 22:36 | 42.10721 | 18.85592 | 5685 ft | 222 kts | 23° |
| 2026-05-04 22:37 | 42.12141 | 18.86189 | 5553 ft | 212 kts | 8° |
| 2026-05-04 22:37 | 42.13590 | 18.86213 | 5452 ft | 208 kts | 355° |
| 2026-05-04 22:37 | 42.15030 | 18.86002 | 5328 ft | 208 kts | 352° |
| 2026-05-04 22:37 | 42.16452 | 18.85657 | 5108 ft | 208 kts | 345° |
| 2026-05-04 22:38 | 42.17842 | 18.85093 | 4781 ft | 209 kts | 342° |
| 2026-05-04 22:38 | 42.19220 | 18.84477 | 4403 ft | 208 kts | 341° |
| 2026-05-04 22:38 | 42.20587 | 18.83834 | 4074 ft | 208 kts | 341° |
| 2026-05-04 22:38 | 42.21927 | 18.83183 | 3761 ft | 203 kts | 340° |
| 2026-05-04 22:39 | 42.23229 | 18.82541 | 3449 ft | 196 kts | 340° |
| 2026-05-04 22:39 | 42.24472 | 18.81920 | 3162 ft | 188 kts | 340° |
| 2026-05-04 22:39 | 42.25647 | 18.81330 | 2888 ft | 176 kts | 340° |
| 2026-05-04 22:39 | 42.26785 | 18.80754 | 2695 ft | 175 kts | 339° |
| 2026-05-04 22:40 | 42.27923 | 18.80176 | 2583 ft | 175 kts | 339° |
| 2026-05-04 22:40 | 42.29062 | 18.79588 | 2437 ft | 174 kts | 339° |
| 2026-05-04 22:40 | 42.30147 | 18.79033 | 2201 ft | 159 kts | 339° |
| 2026-05-04 22:40 | 42.31124 | 18.78527 | 1965 ft | 143 kts | 339° |
| 2026-05-04 22:41 | 42.32040 | 18.78052 | 1716 ft | 140 kts | 339° |
| 2026-05-04 22:41 | 42.32943 | 18.77590 | 1485 ft | 138 kts | 340° |
| 2026-05-04 22:41 | 42.33844 | 18.77174 | 1302 ft | 138 kts | 342° |
| 2026-05-04 22:41 | 42.34749 | 18.76778 | 1139 ft | 139 kts | 341° |
| 2026-05-04 22:42 | 42.35670 | 18.76372 | 953 ft | 141 kts | 342° |
| 2026-05-04 22:42 | 42.36587 | 18.75954 | 744 ft | 138 kts | 339° |
| 2026-05-04 22:42 | 42.37467 | 18.75446 | 558 ft | 137 kts | 334° |
| 2026-05-04 22:42 | 42.38295 | 18.74798 | 379 ft | 138 kts | 325° |
| 2026-05-04 22:43 | 42.39054 | 18.73999 | 194 ft | 138 kts | 319° |
| 2026-05-04 22:43 | 42.39775 | 18.73146 | 39 ft | 136 kts | 319° |
| 2026-05-04 22:43 | 42.40412 | 18.72392 | 26 ft | 98 kts | 318° |
| 2026-05-04 22:43 | 42.40784 | 18.71955 | 26 ft | 60 kts | 319° |
| 2026-05-04 22:44 | 42.40994 | 18.71708 | 27 ft | 34 kts | 319° |
| 2026-05-04 22:44 | 42.41149 | 18.71522 | 27 ft | 26 kts | 320° |
| 2026-05-04 22:44 | 42.41273 | 18.71380 | 25 ft | 17 kts | 322° |
| 2026-05-04 22:44 | 42.41353 | 18.71405 | 51 ft | 13 kts | 63° |
| 2026-05-04 22:45 | 42.41341 | 18.71481 | 52 ft | 5 kts | 139° |
| 2026-05-04 22:45 | 42.41270 | 18.71564 | 52 ft | 4 kts | 139° |
| 2026-05-04 22:45 | 42.41245 | 18.71594 | 55 ft | 6 kts | 139° |
| 2026-05-04 22:46 | 42.41215 | 18.71629 | 56 ft | 5 kts | 134° |
| 2026-05-04 22:46 | 42.41220 | 18.71675 | 54 ft | 5 kts | 78° |
| 2026-05-04 22:46 | 42.41216 | 18.71692 | 54 ft | 1 kts | 134° |
| 2026-05-04 22:46 | 42.41211 | 18.71695 | 54 ft | 0 kts | 155° |